Time;durP1;ratioP1;P1;durP2;ratioP2;P2;SDS_P1;SDS_P2;PMS_P1;PMS_P2;Temp;Humidity;BMP_temperature;BMP_pressure;BME280_temperature;BME280_humidity;BME280_pressure;Samples;Min_cycle;Max_cycle;Signal;HPM_P1;HPM_P2
2023/09/13 00:02:22;;;;;;;;;;;;;;;21.59;28.88;98216.84;4996841;28;1211;-75
2023/09/13 00:04:47;;;;;;;;;;;;;;;21.30;29.13;98205.38;5043659;28;967;-76
2023/09/13 00:07:13;;;;;;;;;;;;;;;21.40;28.96;98214.06;5023472;28;1258;-75
2023/09/13 00:09:41;;;;;;;;;;;;;;;21.37;29.09;98209.28;5056638;28;1053;-75
2023/09/13 00:12:09;;;;;;;;;;;;;;;21.46;29.10;98209.47;5056378;28;1075;-75
2023/09/13 00:14:35;;;;;;;;;;;;;;;21.88;28.36;98207.69;5023267;28;1149;-76
2023/09/13 00:17:00;;;;;;;;;;;;;;;21.90;28.21;98207.22;5056742;28;1141;-75
2023/09/13 00:19:28;;;;;;;;;;;;;;;21.49;28.95;98205.75;5039966;28;1979;-75
2023/09/13 00:21:54;;;;;;;;;;;;;;;21.39;28.82;98204.75;5023646;28;1119;-75
2023/09/13 00:24:20;;;;;;;;;;;;;;;21.64;28.69;98207.03;5023198;28;1160;-75
2023/09/13 00:26:45;;;;;;;;;;;;;;;21.69;28.62;98202.88;5039841;28;967;-75
2023/09/13 00:29:11;;;;;;;;;;;;;;;21.58;28.73;98208.78;5016253;28;949;-75
2023/09/13 00:31:36;;;;;;;;;;;;;;;21.43;28.99;98207.53;5016710;28;933;-76
2023/09/13 00:34:02;;;;;;;;;;;;;;;21.63;28.60;98211.09;5000054;28;1286;-75
2023/09/13 00:36:27;;;;;;;;;;;;;;;21.76;28.52;98212.00;5016444;28;1161;-76
2023/09/13 00:38:53;;;;;;;;;;;;;;;21.45;29.03;98205.84;5015848;28;1993;-75
2023/09/13 00:41:18;;;;;;;;;;;;;;;21.41;29.13;98210.00;5016169;28;997;-75
2023/09/13 00:43:44;;;;;;;;;;;;;;;21.31;28.89;98206.19;5015956;28;1044;-75
2023/09/13 00:46:09;;;;;;;;;;;;;;;21.42;28.81;98211.59;4999617;28;993;-75
2023/09/13 00:48:35;;;;;;;;;;;;;;;21.46;28.92;98201.00;4999817;28;958;-74
2023/09/13 00:51:00;;;;;;;;;;;;;;;21.65;28.77;98197.28;4999987;28;1215;-75
2023/09/13 00:53:27;;;;;;;;;;;;;;;21.71;28.59;98206.88;4999896;28;1250;-75
2023/09/13 00:55:53;;;;;;;;;;;;;;;21.54;28.75;98199.56;4983720;28;1440;-75
2023/09/13 00:58:18;;;;;;;;;;;;;;;21.37;29.15;98207.25;4983251;28;1985;-75
2023/09/13 01:00:44;;;;;;;;;;;;;;;21.57;28.81;98202.34;4990968;28;987;-75
2023/09/13 01:03:10;;;;;;;;;;;;;;;21.35;29.04;98201.25;4963962;28;1132;-75
2023/09/13 01:05:35;;;;;;;;;;;;;;;21.60;28.75;98194.97;4979961;28;1075;-75
2023/09/13 01:08:01;;;;;;;;;;;;;;;21.64;28.62;98195.69;4979790;28;1240;-75
2023/09/13 01:10:27;;;;;;;;;;;;;;;21.51;28.89;98203.31;4979649;28;1398;-75
2023/09/13 01:12:52;;;;;;;;;;;;;;;21.25;29.35;98194.53;4979965;28;1219;-75
2023/09/13 01:15:18;;;;;;;;;;;;;;;21.34;28.90;98199.63;4979793;28;974;-75
2023/09/13 01:17:47;;;;;;;;;;;;;;;21.46;28.86;98196.13;4996331;28;1053;-75
2023/09/13 01:20:31;;;;;;;;;;;;;;;21.49;28.91;98188.78;4979832;28;1907;-75
2023/09/13 01:22:59;;;;;;;;;;;;;;;21.75;28.42;98187.75;4996106;28;1226;-75
2023/09/13 01:25:27;;;;;;;;;;;;;;;21.51;28.78;98191.97;4979837;28;1198;-75
2023/09/13 01:27:56;;;;;;;;;;;;;;;21.26;29.13;98187.66;4995998;28;1264;-75
2023/09/13 01:30:21;;;;;;;;;;;;;;;21.59;28.77;98187.72;4963530;28;1596;-76
2023/09/13 01:32:47;;;;;;;;;;;;;;;21.22;29.05;98192.56;4947403;28;1249;-75
2023/09/13 01:35:12;;;;;;;;;;;;;;;21.29;28.90;98191.63;4963673;28;1194;-75
2023/09/13 01:37:38;;;;;;;;;;;;;;;21.54;28.67;98180.56;4990443;28;1045;-75
2023/09/13 01:40:06;;;;;;;;;;;;;;;21.45;28.99;98188.06;5035001;28;2009;-75
2023/09/13 01:42:32;;;;;;;;;;;;;;;21.39;29.05;98186.97;5018558;28;1055;-75
2023/09/13 01:44:57;;;;;;;;;;;;;;;21.44;29.13;98183.63;5018539;28;988;-75
2023/09/13 01:47:23;;;;;;;;;;;;;;;21.36;28.89;98196.38;5001888;28;1318;-75
2023/09/13 01:49:48;;;;;;;;;;;;;;;21.49;28.72;98183.09;5018341;28;1206;-75
2023/09/13 01:52:14;;;;;;;;;;;;;;;21.23;29.08;98188.50;5001946;28;1234;-75
2023/09/13 01:54:39;;;;;;;;;;;;;;;21.34;28.94;98185.47;5001730;28;951;-75
2023/09/13 01:57:05;;;;;;;;;;;;;;;21.31;28.96;98184.31;5034594;28;951;-75
2023/09/13 01:59:32;;;;;;;;;;;;;;;21.50;28.92;98191.19;5030607;28;1974;-76
2023/09/13 02:01:57;;;;;;;;;;;;;;;21.46;28.96;98184.00;5035883;28;1752;-77
2023/09/13 02:04:23;;;;;;;;;;;;;;;21.57;28.68;98184.56;5037232;28;933;-78
2023/09/13 02:06:48;;;;;;;;;;;;;;;21.40;28.85;98180.06;5036372;28;1374;-77
2023/09/13 02:09:14;;;;;;;;;;;;;;;21.32;28.79;98180.25;5037871;28;941;-77
2023/09/13 02:11:39;;;;;;;;;;;;;;;21.65;28.32;98180.28;5037489;28;1199;-77
2023/09/13 02:14:05;;;;;;;;;;;;;;;21.43;28.66;98177.19;5021075;28;1171;-77
2023/09/13 02:16:31;;;;;;;;;;;;;;;21.67;28.35;98175.00;5037657;28;1154;-77
2023/09/13 02:18:57;;;;;;;;;;;;;;;21.30;29.18;98176.28;5004763;28;1977;-77
2023/09/13 02:21:23;;;;;;;;;;;;;;;21.43;29.03;98173.56;5004666;28;1439;-77
2023/09/13 02:23:48;;;;;;;;;;;;;;;21.40;29.01;98177.25;5020803;28;1093;-77
2023/09/13 02:26:18;;;;;;;;;;;;;;;21.53;28.71;98173.31;5037455;28;1051;-77
2023/09/13 02:28:44;;;;;;;;;;;;;;;21.84;28.34;98176.59;5020962;28;1040;-77
2023/09/13 02:31:09;;;;;;;;;;;;;;;21.46;28.86;98172.69;5037403;28;1690;-77
2023/09/13 02:33:35;;;;;;;;;;;;;;;21.56;28.53;98177.31;5037172;28;1174;-77
2023/09/13 02:36:01;;;;;;;;;;;;;;;21.55;28.47;98175.69;5053780;28;997;-78
2023/09/13 02:38:26;;;;;;;;;;;;;;;21.63;28.26;98182.78;5033396;28;1972;-76
2023/09/13 02:40:52;;;;;;;;;;;;;;;21.53;28.69;98172.50;5055124;28;1252;-77
2023/09/13 02:43:17;;;;;;;;;;;;;;;21.46;28.77;98167.81;5054944;28;1067;-76
2023/09/13 02:45:43;;;;;;;;;;;;;;;21.33;28.98;98170.53;5038540;28;1115;-78
2023/09/13 02:48:08;;;;;;;;;;;;;;;21.52;28.67;98176.56;5056051;28;943;-77
2023/09/13 02:50:34;;;;;;;;;;;;;;;21.50;28.74;98173.38;5055030;28;1193;-77
2023/09/13 02:52:59;;;;;;;;;;;;;;;21.52;28.82;98187.91;5038145;28;1023;-78
2023/09/13 02:55:25;;;;;;;;;;;;;;;21.58;28.62;98177.66;5054763;28;942;-77
2023/09/13 02:57:52;;;;;;;;;;;;;;;21.14;29.09;98179.84;5054985;28;1008;-77
2023/09/13 03:00:18;;;;;;;;;;;;;;;21.29;29.04;98174.63;5036624;28;1985;-77
2023/09/13 03:02:43;;;;;;;;;;;;;;;21.58;28.50;98177.66;5036977;28;1163;-77
2023/09/13 03:05:09;;;;;;;;;;;;;;;21.28;28.98;98179.50;5036615;28;1226;-76
2023/09/13 03:07:35;;;;;;;;;;;;;;;21.55;28.47;98178.50;5003888;28;1184;-76
2023/09/13 03:10:00;;;;;;;;;;;;;;;21.31;29.02;98184.31;5036599;28;1183;-76
2023/09/13 03:12:26;;;;;;;;;;;;;;;21.42;28.74;98177.63;5020535;28;1092;-77
2023/09/13 03:14:54;;;;;;;;;;;;;;;21.54;28.50;98188.25;5036577;28;1682;-76
2023/09/13 03:17:20;;;;;;;;;;;;;;;21.29;28.84;98189.56;5020202;28;1139;-77
2023/09/13 03:19:45;;;;;;;;;;;;;;;21.22;28.98;98189.75;5036300;28;2015;-77
2023/09/13 03:22:11;;;;;;;;;;;;;;;21.61;28.25;98190.94;5036753;28;1299;-77
2023/09/13 03:24:37;;;;;;;;;;;;;;;21.46;28.87;98186.84;5036641;28;1142;-77
2023/09/13 03:27:03;;;;;;;;;;;;;;;21.38;28.81;98191.84;5036528;28;1398;-77
2023/09/13 03:29:28;;;;;;;;;;;;;;;21.50;28.54;98184.69;5036518;28;1017;-77
2023/09/13 03:31:54;;;;;;;;;;;;;;;21.57;28.28;98185.34;5049322;28;1162;-77
2023/09/13 03:34:19;;;;;;;;;;;;;;;21.69;28.09;98186.69;5037710;28;1175;-77
2023/09/13 03:36:45;;;;;;;;;;;;;;;21.72;28.18;98185.81;5037550;28;1162;-78
2023/09/13 03:39:10;;;;;;;;;;;;;;;21.54;28.35;98193.91;5040311;28;1902;-77
2023/09/13 03:41:36;;;;;;;;;;;;;;;21.36;28.80;98190.72;5056944;28;1119;-76
2023/09/13 03:44:04;;;;;;;;;;;;;;;21.61;28.10;98185.28;5008130;28;1358;-77
2023/09/13 03:46:29;;;;;;;;;;;;;;;21.54;28.25;98191.88;5040640;28;989;-77
2023/09/13 03:48:57;;;;;;;;;;;;;;;21.55;28.40;98189.84;5040497;28;1108;-77
2023/09/13 03:51:22;;;;;;;;;;;;;;;21.68;28.25;98195.63;5007389;28;1191;-77
2023/09/13 03:53:48;;;;;;;;;;;;;;;21.40;28.67;98203.56;5007117;28;1167;-77
2023/09/13 03:56:13;;;;;;;;;;;;;;;21.63;28.22;98202.59;5007669;28;1106;-77
2023/09/13 03:58:39;;;;;;;;;;;;;;;21.49;28.50;98200.09;5023628;28;1979;-77
2023/09/13 04:01:05;;;;;;;;;;;;;;;21.43;28.68;98199.03;5023243;28;1183;-77
2023/09/13 04:03:30;;;;;;;;;;;;;;;21.36;28.92;98190.72;5023650;28;1142;-78
2023/09/13 04:05:57;;;;;;;;;;;;;;;21.44;28.43;98197.78;5007270;28;1231;-78
2023/09/13 04:08:23;;;;;;;;;;;;;;;21.35;28.73;98200.41;5009061;28;1060;-77
2023/09/13 04:10:49;;;;;;;;;;;;;;;21.46;28.70;98198.16;5019949;28;1208;-78
2023/09/13 04:13:15;;;;;;;;;;;;;;;21.67;28.35;98194.81;5004885;28;1413;-78
2023/09/13 04:15:42;;;;;;;;;;;;;;;21.38;28.51;98202.38;5000250;28;1113;-77
2023/09/13 04:18:08;;;;;;;;;;;;;;;21.55;28.24;98195.50;4999917;28;1097;-77
2023/09/13 04:20:34;;;;;;;;;;;;;;;21.29;28.89;98202.94;5016477;28;2009;-77
2023/09/13 04:22:59;;;;;;;;;;;;;;;21.54;28.28;98196.75;5016319;28;1450;-77
2023/09/13 04:25:25;;;;;;;;;;;;;;;21.69;28.40;98203.66;5000503;28;1278;-77
2023/09/13 04:27:51;;;;;;;;;;;;;;;21.43;28.46;98210.34;5000391;28;1220;-77
2023/09/13 04:30:16;;;;;;;;;;;;;;;21.39;28.87;98212.47;5016632;28;1601;-78
2023/09/13 04:32:42;;;;;;;;;;;;;;;21.53;28.54;98207.28;5016033;28;1400;-76
2023/09/13 04:35:08;;;;;;;;;;;;;;;21.62;28.45;98215.19;5016264;28;1545;-77
2023/09/13 04:37:34;;;;;;;;;;;;;;;21.52;28.53;98210.56;4999908;28;1068;-77
2023/09/13 04:40:04;;;;;;;;;;;;;;;21.60;28.33;98211.97;5047148;28;1987;-77
2023/09/13 04:42:29;;;;;;;;;;;;;;;21.74;28.27;98208.81;5033639;28;1573;-77
2023/09/13 04:44:55;;;;;;;;;;;;;;;21.34;28.89;98205.28;5033512;28;1468;-77
2023/09/13 04:47:21;;;;;;;;;;;;;;;21.57;28.32;98218.53;5031016;28;1532;-77
2023/09/13 04:49:46;;;;;;;;;;;;;;;21.40;28.69;98202.72;5042604;28;1494;-77
2023/09/13 04:52:13;;;;;;;;;;;;;;;21.27;29.10;98211.88;5042267;28;1511;-77
2023/09/13 04:54:39;;;;;;;;;;;;;;;21.16;29.10;98205.66;5054017;28;1296;-76
2023/09/13 04:57:05;;;;;;;;;;;;;;;21.42;28.98;98211.59;5045696;28;1448;-77
2023/09/13 04:59:42;;;;;;;;;;;;;;;21.28;28.95;98213.47;5056780;28;1987;-77
2023/09/13 05:02:07;;;;;;;;;;;;;;;21.44;28.65;98209.91;5030916;28;1281;-77
2023/09/13 05:04:33;;;;;;;;;;;;;;;21.51;28.69;98217.47;5056094;28;1523;-76
2023/09/13 05:06:58;;;;;;;;;;;;;;;21.55;28.78;98215.31;5051302;28;1575;-77
2023/09/13 05:09:24;;;;;;;;;;;;;;;21.52;28.63;98216.22;5056783;28;1452;-77
2023/09/13 05:11:49;;;;;;;;;;;;;;;21.62;28.52;98220.84;5056284;28;1505;-77
2023/09/13 05:14:15;;;;;;;;;;;;;;;21.39;28.68;98212.47;5025002;28;1535;-77
2023/09/13 05:16:41;;;;;;;;;;;;;;;21.55;28.71;98221.81;5056334;28;920;-78
2023/09/13 05:19:06;;;;;;;;;;;;;;;21.30;29.32;98211.03;5056565;28;1979;-77
2023/09/13 05:21:33;;;;;;;;;;;;;;;21.44;29.00;98214.78;5056793;28;1118;-77
2023/09/13 05:23:58;;;;;;;;;;;;;;;21.32;29.12;98214.22;5056675;28;1318;-77
2023/09/13 05:26:24;;;;;;;;;;;;;;;21.40;28.98;98219.72;5039988;28;1533;-78
2023/09/13 05:28:49;;;;;;;;;;;;;;;21.74;28.66;98208.81;5056127;28;1465;-77
2023/09/13 05:31:15;;;;;;;;;;;;;;;21.59;28.93;98216.84;5039511;28;923;-77
2023/09/13 05:33:40;;;;;;;;;;;;;;;21.45;28.94;98222.03;5056435;28;957;-77
2023/09/13 05:36:09;;;;;;;;;;;;;;;21.44;29.18;98231.75;5038732;28;1032;-77
2023/09/13 05:38:35;;;;;;;;;;;;;;;21.65;28.51;98230.47;5056302;28;1913;-76
2023/09/13 05:41:09;;;;;;;;;;;;;;;21.36;28.96;98236.00;5056300;28;922;-77
2023/09/13 05:43:35;;;;;;;;;;;;;;;21.55;28.85;98243.63;5044929;28;1324;-77
2023/09/13 05:46:01;;;;;;;;;;;;;;;21.53;29.03;98234.78;5038081;28;981;-77
2023/09/13 05:48:26;;;;;;;;;;;;;;;21.52;29.08;98244.53;5037810;28;1034;-77
2023/09/13 05:50:52;;;;;;;;;;;;;;;21.57;28.74;98249.66;5006725;28;1470;-77
2023/09/13 05:53:19;;;;;;;;;;;;;;;21.59;28.81;98244.34;4979189;28;891;-77
2023/09/13 05:55:48;;;;;;;;;;;;;;;21.55;29.15;98238.78;4956519;29;1016;-77
2023/09/13 05:58:13;;;;;;;;;;;;;;;21.53;29.28;98244.09;4956345;29;990;-77
2023/09/13 06:00:41;;;;;;;;;;;;;;;21.33;29.52;98243.31;4940244;29;1915;-78
2023/09/13 06:03:07;;;;;;;;;;;;;;;21.57;29.25;98241.19;4955287;28;1160;-77
2023/09/13 06:05:32;;;;;;;;;;;;;;;21.46;29.18;98237.78;4956589;29;1026;-77
2023/09/13 06:07:58;;;;;;;;;;;;;;;21.43;29.25;98244.31;4917709;29;1481;-77
2023/09/13 06:10:23;;;;;;;;;;;;;;;21.54;29.26;98242.84;4901752;29;1601;-76
2023/09/13 06:12:49;;;;;;;;;;;;;;;21.43;29.19;98247.16;4917842;29;1658;-77
2023/09/13 06:15:14;;;;;;;;;;;;;;;21.46;29.54;98240.63;4921016;29;2121;-77
2023/09/13 06:17:40;;;;;;;;;;;;;;;21.54;29.31;98244.88;4921219;29;1047;-77
2023/09/13 06:20:05;;;;;;;;;;;;;;;21.52;29.51;98247.38;4920890;29;1906;-76
2023/09/13 06:22:32;;;;;;;;;;;;;;;21.44;29.40;98243.09;4921313;29;1061;-78
2023/09/13 06:25:01;;;;;;;;;;;;;;;21.50;29.17;98249.81;4920678;29;1251;-77
2023/09/13 06:27:26;;;;;;;;;;;;;;;21.72;29.10;98248.13;4989214;28;982;-77
2023/09/13 06:29:51;;;;;;;;;;;;;;;21.38;29.09;98199.53;5033764;28;980;-76
2023/09/13 06:32:17;;;;;;;;;;;;;;;21.50;29.53;98241.31;5017277;28;967;-77
2023/09/13 06:34:42;;;;;;;;;;;;;;;21.45;29.38;98256.00;5034081;28;968;-77
2023/09/13 06:37:08;;;;;;;;;;;;;;;21.45;29.46;98256.00;5001455;28;918;-78
2023/09/13 06:39:34;;;;;;;;;;;;;;;21.39;29.48;98263.41;5034034;28;1910;-77
2023/09/13 06:42:00;;;;;;;;;;;;;;;21.38;29.47;98262.63;5045967;28;1397;-78
2023/09/13 06:44:26;;;;;;;;;;;;;;;21.33;29.56;98278.06;5037301;28;1336;-77
2023/09/13 06:46:51;;;;;;;;;;;;;;;21.66;29.10;98272.53;5028587;28;1598;-77
2023/09/13 06:49:17;;;;;;;;;;;;;;;21.61;29.24;98270.22;5011191;28;1498;-77
2023/09/13 06:51:42;;;;;;;;;;;;;;;21.44;29.72;98265.72;5003301;28;1541;-78
2023/09/13 06:54:08;;;;;;;;;;;;;;;21.51;29.48;98265.59;4966088;28;1476;-77
2023/09/13 06:56:33;;;;;;;;;;;;;;;21.55;29.38;98269.94;4966548;28;1574;-77
2023/09/13 06:58:59;;;;;;;;;;;;;;;21.67;29.13;98265.63;4964876;28;1902;-77
2023/09/13 07:01:24;;;;;;;;;;;;;;;21.58;29.48;98273.91;4958294;28;1685;-78
2023/09/13 07:03:51;;;;;;;;;;;;;;;21.84;29.03;98264.41;4972474;28;1510;-77
2023/09/13 07:06:16;;;;;;;;;;;;;;;21.57;29.20;98264.63;4974832;28;1217;-78
2023/09/13 07:08:42;;;;;;;;;;;;;;;21.61;29.48;98275.09;4980729;28;1657;-77
2023/09/13 07:11:07;;;;;;;;;;;;;;;21.37;29.71;98277.22;4989800;28;1623;-78
2023/09/13 07:13:33;;;;;;;;;;;;;;;21.61;29.41;98275.88;4985971;28;1595;-77
2023/09/13 07:15:58;;;;;;;;;;;;;;;21.79;29.10;98279.09;4965991;28;1495;-77
2023/09/13 07:18:24;;;;;;;;;;;;;;;21.51;29.57;98276.91;4969088;28;1888;-77
2023/09/13 07:20:49;;;;;;;;;;;;;;;21.75;29.42;98267.03;4993702;28;1206;-76
2023/09/13 07:23:15;;;;;;;;;;;;;;;21.54;29.71;98270.34;4990135;28;1352;-77
2023/09/13 07:25:40;;;;;;;;;;;;;;;21.58;29.70;98271.88;4972346;28;1604;-77
2023/09/13 07:28:06;;;;;;;;;;;;;;;21.75;29.38;98286.88;5013389;28;1601;-77
2023/09/13 07:30:31;;;;;;;;;;;;;;;21.58;29.62;98283.19;4993700;28;1600;-77
2023/09/13 07:32:57;;;;;;;;;;;;;;;21.42;30.03;98283.16;4977555;28;960;-77
2023/09/13 07:35:23;;;;;;;;;;;;;;;21.40;30.07;98279.97;4993994;28;1145;-77
2023/09/13 07:37:49;;;;;;;;;;;;;;;21.53;29.89;98278.06;4993918;28;1013;-77
2023/09/13 07:40:14;;;;;;;;;;;;;;;21.46;29.99;98275.41;4993644;28;1993;-77
2023/09/13 07:42:40;;;;;;;;;;;;;;;21.42;30.00;98290.84;5010182;28;1020;-77
2023/09/13 07:45:07;;;;;;;;;;;;;;;21.31;30.07;98286.22;4996495;28;1053;-77
2023/09/13 07:47:32;;;;;;;;;;;;;;;21.54;29.85;98284.50;5016671;28;969;-77
2023/09/13 07:49:58;;;;;;;;;;;;;;;21.55;29.73;98283.28;5033367;28;1027;-78
2023/09/13 07:52:24;;;;;;;;;;;;;;;21.78;29.56;98273.88;5016684;28;1039;-78
2023/09/13 07:54:50;;;;;;;;;;;;;;;21.91;29.22;98276.81;5033194;28;921;-78
2023/09/13 07:57:16;;;;;;;;;;;;;;;21.57;29.80;98275.16;5028985;28;1345;-78
2023/09/13 07:59:41;;;;;;;;;;;;;;;21.49;29.89;98274.50;5034864;28;1973;-78
2023/09/13 08:02:07;;;;;;;;;;;;;;;21.79;29.68;98276.25;5035468;28;1018;-78
2023/09/13 08:04:33;;;;;;;;;;;;;;;21.86;29.52;98286.63;5035197;28;910;-77
2023/09/13 08:06:59;;;;;;;;;;;;;;;21.73;29.53;98283.69;5035385;28;903;-77
2023/09/13 08:09:25;;;;;;;;;;;;;;;21.81;29.26;98284.31;5016114;28;1187;-77
2023/09/13 08:11:50;;;;;;;;;;;;;;;21.59;29.73;98284.00;5016077;28;1210;-77
2023/09/13 08:14:16;;;;;;;;;;;;;;;21.57;30.24;98275.16;5016185;28;1152;-76
2023/09/13 08:16:41;;;;;;;;;;;;;;;21.69;29.95;98277.31;5033162;28;986;-77
2023/09/13 08:19:08;;;;;;;;;;;;;;;21.77;29.66;98278.75;5029581;28;1910;-77
2023/09/13 08:21:33;;;;;;;;;;;;;;;21.71;29.96;98271.19;5032400;28;1696;-77
2023/09/13 08:23:59;;;;;;;;;;;;;;;21.83;29.65;98276.19;5021066;28;2086;-77
2023/09/13 08:26:25;;;;;;;;;;;;;;;21.70;29.74;98267.56;5033519;28;1649;-77
2023/09/13 08:28:51;;;;;;;;;;;;;;;21.63;30.19;98272.59;5036094;28;1578;-77
2023/09/13 08:31:17;;;;;;;;;;;;;;;21.76;29.96;98271.50;5040726;28;1686;-78
2023/09/13 08:33:43;;;;;;;;;;;;;;;21.85;29.43;98274.50;5035968;28;1582;-78
2023/09/13 08:36:09;;;;;;;;;;;;;;;21.95;29.48;98271.84;5022325;28;1653;-77
2023/09/13 08:38:34;;;;;;;;;;;;;;;21.89;29.74;98262.28;5036226;28;1898;-77
2023/09/13 08:41:01;;;;;;;;;;;;;;;21.65;30.10;98276.56;5034819;28;980;-78
2023/09/13 08:43:27;;;;;;;;;;;;;;;21.66;29.92;98266.88;5058324;28;974;-77
2023/09/13 08:45:52;;;;;;;;;;;;;;;21.47;30.37;98259.19;5035897;28;948;-77
2023/09/13 08:48:21;;;;;;;;;;;;;;;21.73;29.96;98272.34;5035963;28;937;-77
2023/09/13 08:50:47;;;;;;;;;;;;;;;21.73;30.23;98261.03;5020116;28;921;-77
2023/09/13 08:53:13;;;;;;;;;;;;;;;21.88;29.99;98263.53;5035713;28;1074;-77
2023/09/13 08:55:39;;;;;;;;;;;;;;;21.70;30.16;98261.91;5036081;28;981;-78
2023/09/13 08:58:04;;;;;;;;;;;;;;;21.81;30.06;98268.13;5035790;28;1017;-77
2023/09/13 09:00:37;;;;;;;;;;;;;;;21.87;30.04;98259.91;5019263;28;1906;-77
2023/09/13 09:03:04;;;;;;;;;;;;;;;21.74;30.02;98256.16;5019579;28;960;-77
2023/09/13 09:05:30;;;;;;;;;;;;;;;21.40;30.72;98256.50;5036195;28;1078;-77
2023/09/13 09:07:56;;;;;;;;;;;;;;;21.80;30.01;98268.56;5019372;28;935;-77
2023/09/13 09:10:21;;;;;;;;;;;;;;;21.67;30.03;98257.13;5035551;28;1057;-78
2023/09/13 09:12:47;;;;;;;;;;;;;;;21.64;30.19;98257.19;5019549;28;962;-78
2023/09/13 09:15:13;;;;;;;;;;;;;;;21.87;30.05;98259.13;5019100;28;942;-77
2023/09/13 09:17:39;;;;;;;;;;;;;;;21.73;30.24;98251.75;5018608;28;1255;-78
2023/09/13 09:20:05;;;;;;;;;;;;;;;21.95;29.76;98258.47;5018912;28;1902;-78
2023/09/13 09:22:30;;;;;;;;;;;;;;;21.77;30.20;98256.09;5006442;28;1187;-77
2023/09/13 09:24:57;;;;;;;;;;;;;;;21.92;29.80;98255.75;5056530;28;1327;-78
2023/09/13 09:27:23;;;;;;;;;;;;;;;21.89;29.98;98263.09;5040651;28;1275;-77
2023/09/13 09:29:49;;;;;;;;;;;;;;;21.63;30.26;98256.41;5056735;28;935;-77
2023/09/13 09:32:14;;;;;;;;;;;;;;;21.67;30.17;98262.00;5057370;28;971;-77
2023/09/13 09:34:40;;;;;;;;;;;;;;;21.77;30.16;98256.09;5056421;28;1036;-78
2023/09/13 09:37:09;;;;;;;;;;;;;;;21.83;29.86;98247.88;5055935;28;947;-77
2023/09/13 09:39:39;;;;;;;;;;;;;;;21.74;30.22;98253.31;5056479;28;1914;-76
2023/09/13 09:42:05;;;;;;;;;;;;;;;21.92;29.90;98250.88;5055960;28;960;-78
2023/09/13 09:44:30;;;;;;;;;;;;;;;21.58;30.34;98242.78;5034803;28;946;-78
2023/09/13 09:46:56;;;;;;;;;;;;;;;21.55;30.55;98246.47;5034840;28;1129;-77
2023/09/13 09:49:22;;;;;;;;;;;;;;;21.77;29.95;98249.63;5013422;28;1889;-77
2023/09/13 09:51:47;;;;;;;;;;;;;;;21.75;29.95;98252.88;5009539;28;1473;-77
2023/09/13 09:54:13;;;;;;;;;;;;;;;21.83;29.81;98245.81;5015637;28;1494;-78
2023/09/13 09:56:39;;;;;;;;;;;;;;;21.67;30.35;98250.66;5031127;28;1601;-77
2023/09/13 09:59:05;;;;;;;;;;;;;;;21.82;29.91;98252.72;5034523;28;1914;-77
2023/09/13 10:01:30;;;;;;;;;;;;;;;21.64;30.26;98252.34;5007733;28;1474;-77
2023/09/13 10:04:06;;;;;;;;;;;;;;;21.97;29.87;98246.72;5009095;28;1605;-77
2023/09/13 10:06:31;;;;;;;;;;;;;;;22.09;29.27;98248.84;5008767;28;1554;-78
2023/09/13 10:08:57;;;;;;;;;;;;;;;21.83;30.08;98237.31;5032786;28;1626;-77
2023/09/13 10:11:22;;;;;;;;;;;;;;;21.66;30.01;98249.06;5031594;28;1481;-78
2023/09/13 10:13:48;;;;;;;;;;;;;;;21.74;30.11;98239.97;5001492;28;1614;-78
2023/09/13 10:16:14;;;;;;;;;;;;;;;21.53;30.43;98243.28;5059406;28;2141;-77
2023/09/13 10:18:44;;;;;;;;;;;;;;;21.65;30.10;98251.09;5055158;28;1902;-76
2023/09/13 10:21:09;;;;;;;;;;;;;;;21.64;30.17;98248.72;5038773;28;1533;-77
2023/09/13 10:23:39;;;;;;;;;;;;;;;21.96;29.59;98245.13;5047559;28;1644;-77
2023/09/13 10:26:06;;;;;;;;;;;;;;;21.71;30.08;98235.19;5036455;28;1633;-78
2023/09/13 10:28:32;;;;;;;;;;;;;;;21.52;30.18;98244.53;5025763;28;1634;-77
2023/09/13 10:30:58;;;;;;;;;;;;;;;21.67;30.11;98250.66;5008807;28;1645;-78
2023/09/13 10:33:23;;;;;;;;;;;;;;;21.52;30.36;98255.84;5017278;28;1509;-77
2023/09/13 10:35:49;;;;;;;;;;;;;;;21.64;30.09;98258.00;5017075;28;1622;-77
2023/09/13 10:38:24;;;;;;;;;;;;;;;21.61;30.12;98258.91;5022219;28;1562;-78
2023/09/13 10:41:00;;;;;;;;;;;;;;;21.77;30.14;98250.41;5015242;28;2357;-78
2023/09/13 10:43:26;;;;;;;;;;;;;;;21.62;30.23;98254.81;5016975;28;1763;-78
2023/09/13 10:45:51;;;;;;;;;;;;;;;21.71;29.87;98246.53;5017063;28;1617;-78
2023/09/13 10:48:17;;;;;;;;;;;;;;;21.58;30.22;98252.06;5038312;28;1324;-78
2023/09/13 10:50:42;;;;;;;;;;;;;;;21.75;29.95;98247.22;5053297;28;1710;-78
2023/09/13 10:53:08;;;;;;;;;;;;;;;21.60;30.13;98251.59;5050990;28;1299;-78
2023/09/13 10:55:34;;;;;;;;;;;;;;;21.94;29.68;98239.09;5036859;28;1432;-77
2023/09/13 10:57:59;;;;;;;;;;;;;;;21.97;29.64;98243.91;5020428;28;1848;-77
2023/09/13 11:00:25;;;;;;;;;;;;;;;21.88;29.61;98244.50;5053109;28;1917;-78
2023/09/13 11:02:51;;;;;;;;;;;;;;;21.89;29.78;98234.75;5051693;28;1554;-77
2023/09/13 11:05:17;;;;;;;;;;;;;;;21.72;30.08;98238.81;5054675;28;1498;-78
2023/09/13 11:07:45;;;;;;;;;;;;;;;21.63;30.39;98238.63;5055799;28;1441;-78
2023/09/13 11:10:11;;;;;;;;;;;;;;;21.93;29.87;98234.69;5054607;28;1177;-77
2023/09/13 11:12:37;;;;;;;;;;;;;;;21.72;30.26;98219.78;5056236;28;926;-77
2023/09/13 11:15:12;;;;;;;;;;;;;;;21.50;30.53;98230.00;5054794;28;1203;-78
2023/09/13 11:17:39;;;;;;;;;;;;;;;21.41;30.71;98227.78;5033397;28;1214;-77
2023/09/13 11:20:19;;;;;;;;;;;;;;;21.47;30.51;98230.91;5016596;28;1903;-77
2023/09/13 11:22:45;;;;;;;;;;;;;;;21.57;30.62;98224.19;5033351;28;958;-77
2023/09/13 11:25:10;;;;;;;;;;;;;;;21.52;30.46;98227.53;5016612;28;1245;-77
2023/09/13 11:27:36;;;;;;;;;;;;;;;21.84;30.23;98221.91;5016702;28;1555;-78
2023/09/13 11:30:04;;;;;;;;;;;;;;;21.84;30.19;98226.78;5033098;28;959;-78
2023/09/13 11:32:30;;;;;;;;;;;;;;;21.93;30.04;98218.47;5033228;28;959;-78
2023/09/13 11:34:56;;;;;;;;;;;;;;;21.99;29.99;98221.56;5016931;28;1040;-78
2023/09/13 11:37:22;;;;;;;;;;;;;;;21.95;30.09;98218.03;5016724;28;992;-77
2023/09/13 11:39:54;;;;;;;;;;;;;;;22.09;29.69;98220.50;5013259;28;1902;-78
2023/09/13 11:42:28;;;;;;;;;;;;;;;21.96;29.73;98222.44;4996907;28;1694;-77
2023/09/13 11:44:57;;;;;;;;;;;;;;;21.77;30.21;98216.44;4973055;28;1530;-78
2023/09/13 11:47:22;;;;;;;;;;;;;;;21.76;30.17;98209.19;4997024;28;1127;-77
2023/09/13 11:49:48;;;;;;;;;;;;;;;21.76;30.14;98216.84;5016503;28;993;-78
2023/09/13 11:52:13;;;;;;;;;;;;;;;21.76;30.10;98223.34;5033177;28;1214;-78
2023/09/13 11:54:52;;;;;;;;;;;;;;;21.87;29.91;98225.13;5033305;28;992;-77
2023/09/13 11:57:19;;;;;;;;;;;;;;;21.54;30.37;98227.88;5000515;28;1179;-77
2023/09/13 11:59:44;;;;;;;;;;;;;;;21.70;30.25;98216.59;5033319;28;1976;-77
2023/09/13 12:02:11;;;;;;;;;;;;;;;21.68;30.13;98212.63;5037153;28;970;-77
2023/09/13 12:04:36;;;;;;;;;;;;;;;21.78;30.02;98214.41;5020407;28;885;-77
2023/09/13 12:07:03;;;;;;;;;;;;;;;21.83;29.77;98220.31;5036652;28;1285;-76
2023/09/13 12:09:28;;;;;;;;;;;;;;;21.85;29.67;98226.34;5017210;28;1640;-76
2023/09/13 12:11:55;;;;;;;;;;;;;;;21.65;30.37;98216.31;5027620;28;1645;-76
2023/09/13 12:14:21;;;;;;;;;;;;;;;21.65;30.29;98214.28;5012395;28;1535;-76
2023/09/13 12:16:50;;;;;;;;;;;;;;;21.61;30.27;98219.25;5030089;28;1537;-77
2023/09/13 12:19:16;;;;;;;;;;;;;;;21.59;30.09;98214.00;5056326;28;1902;-76
2023/09/13 12:21:45;;;;;;;;;;;;;;;21.60;30.23;98217.63;5023767;28;1098;-76
2023/09/13 12:24:13;;;;;;;;;;;;;;;21.85;29.89;98217.03;5036588;28;964;-77
2023/09/13 12:26:39;;;;;;;;;;;;;;;21.85;29.53;98211.38;5020723;28;1178;-77
2023/09/13 12:29:05;;;;;;;;;;;;;;;21.97;29.45;98207.84;5003141;28;1222;-76
2023/09/13 12:31:30;;;;;;;;;;;;;;;21.81;29.98;98210.66;5020226;28;1028;-77
2023/09/13 12:33:57;;;;;;;;;;;;;;;21.81;29.88;98211.50;5016403;28;997;-77
2023/09/13 12:36:22;;;;;;;;;;;;;;;21.67;30.25;98211.81;4984110;28;1140;-78
2023/09/13 12:38:48;;;;;;;;;;;;;;;21.63;30.27;98208.28;5000103;28;1975;-77
2023/09/13 12:41:27;;;;;;;;;;;;;;;21.78;30.16;98205.91;5000401;28;981;-77
2023/09/13 12:43:52;;;;;;;;;;;;;;;21.78;30.10;98212.34;5000436;28;1101;-77
2023/09/13 12:46:19;;;;;;;;;;;;;;;21.75;30.06;98210.41;5000272;28;957;-77
2023/09/13 12:48:45;;;;;;;;;;;;;;;21.54;30.60;98208.06;4999743;28;923;-78
2023/09/13 12:51:12;;;;;;;;;;;;;;;21.69;30.34;98208.53;4983728;28;1024;-78
2023/09/13 12:53:38;;;;;;;;;;;;;;;21.78;30.01;98212.34;5016394;28;1000;-78
2023/09/13 12:56:04;;;;;;;;;;;;;;;21.65;30.42;98216.31;5016127;28;975;-78